Time;durP1;ratioP1;P1;durP2;ratioP2;P2;SDS_P1;SDS_P2;PMS_P1;PMS_P2;Temp;Humidity;BMP_temperature;BMP_pressure;BME280_temperature;BME280_humidity;BME280_pressure;Samples;Min_cycle;Max_cycle;Signal;HPM_P1;HPM_P2
2021/10/03 00:04:16;;;;;;;1.60;1.23;;;17.40;99.90;;;;;;5041858;28;20228;-87
2021/10/03 00:06:46;;;;;;;2.20;1.17;;;17.40;99.90;;;;;;5075276;28;20574;-86
2021/10/03 00:09:12;;;;;;;2.10;1.20;;;17.30;99.90;;;;;;5075593;28;20203;-86
2021/10/03 00:11:38;;;;;;;2.33;1.10;;;17.30;99.90;;;;;;5057715;28;20187;-86
2021/10/03 00:14:11;;;;;;;2.30;1.07;;;17.30;99.90;;;;;;5057902;28;20176;-86
2021/10/03 00:16:37;;;;;;;2.03;1.20;;;17.40;99.90;;;;;;5057130;28;20173;-86
2021/10/03 00:19:03;;;;;;;2.50;1.10;;;17.30;99.90;;;;;;5075294;28;20199;-87
2021/10/03 00:21:50;;;;;;;1.50;1.10;;;17.30;99.90;;;;;;5057656;28;20176;-87
2021/10/03 00:24:26;;;;;;;2.10;1.00;;;17.30;99.90;;;;;;5057465;28;20207;-86
2021/10/03 00:27:21;;;;;;;2.43;1.10;;;17.30;99.90;;;;;;5057041;28;20251;-87
2021/10/03 00:30:03;;;;;;;1.63;1.00;;;17.30;99.90;;;;;;5082229;28;20177;-87
2021/10/03 00:32:29;;;;;;;1.33;1.00;;;17.40;99.90;;;;;;5097431;28;20259;-86
2021/10/03 00:34:58;;;;;;;2.03;1.00;;;17.40;99.90;;;;;;5077035;28;20172;-87
2021/10/03 00:37:24;;;;;;;2.67;1.00;;;17.40;99.90;;;;;;5097622;28;20176;-86
2021/10/03 00:39:53;;;;;;;1.30;1.00;;;17.40;99.90;;;;;;5081732;28;20157;-85
2021/10/03 00:42:23;;;;;;;1.67;0.90;;;17.40;99.90;;;;;;5075613;28;20176;-86
2021/10/03 00:44:49;;;;;;;1.27;0.83;;;17.40;99.90;;;;;;5078566;28;20559;-86
2021/10/03 00:47:18;;;;;;;1.13;0.87;;;17.40;99.90;;;;;;5058237;28;20194;-86
2021/10/03 00:49:50;;;;;;;1.37;1.00;;;17.40;99.90;;;;;;5057568;28;20215;-86
2021/10/03 00:52:15;;;;;;;2.70;0.83;;;17.40;99.90;;;;;;5056866;28;20168;-86
2021/10/03 00:54:44;;;;;;;0.87;0.70;;;17.40;99.90;;;;;;5074237;28;20663;-86
2021/10/03 00:57:11;;;;;;;1.87;0.87;;;17.40;99.90;;;;;;5074455;28;20168;-86
2021/10/03 00:59:37;;;;;;;1.50;0.80;;;17.40;99.90;;;;;;5056364;28;20186;-86
2021/10/03 01:02:03;;;;;;;1.60;0.90;;;17.40;99.90;;;;;;5056581;28;20184;-87
2021/10/03 01:04:29;;;;;;;1.33;0.80;;;17.40;99.90;;;;;;5056958;28;20234;-87
2021/10/03 01:06:55;;;;;;;2.50;0.83;;;17.40;99.90;;;;;;5074758;28;20713;-86
2021/10/03 01:09:25;;;;;;;2.40;1.00;;;17.50;99.90;;;;;;5069973;28;20186;-84
2021/10/03 01:11:51;;;;;;;1.40;1.00;;;17.50;99.90;;;;;;5088284;28;20256;-84
2021/10/03 01:14:18;;;;;;;1.70;1.10;;;17.50;99.90;;;;;;5074984;28;20219;-86
2021/10/03 01:16:45;;;;;;;1.30;0.90;;;17.40;99.90;;;;;;5098916;28;20176;-85
2021/10/03 01:19:14;;;;;;;1.50;1.17;;;17.40;99.90;;;;;;5091992;28;20241;-86
2021/10/03 01:21:42;;;;;;;1.07;0.90;;;17.50;99.90;;;;;;5077089;28;20663;-86
2021/10/03 01:24:13;;;;;;;1.83;1.00;;;17.40;99.90;;;;;;5057863;28;20206;-86
2021/10/03 01:26:40;;;;;;;1.40;1.00;;;17.50;99.90;;;;;;5056831;28;20222;-86
2021/10/03 01:29:09;;;;;;;1.33;0.90;;;17.40;99.90;;;;;;5056539;28;20172;-86
2021/10/03 01:31:35;;;;;;;1.70;1.10;;;17.40;99.90;;;;;;5056303;28;20647;-86
2021/10/03 01:34:02;;;;;;;2.40;1.00;;;17.40;99.90;;;;;;5074495;28;20206;-86
2021/10/03 01:36:31;;;;;;;1.43;0.97;;;17.50;99.90;;;;;;5073950;28;20172;-86
2021/10/03 01:38:57;;;;;;;2.13;1.03;;;17.40;99.90;;;;;;5056119;28;20613;-86
2021/10/03 01:41:45;;;;;;;2.03;1.37;;;17.40;99.90;;;;;;5074005;28;20563;-88
2021/10/03 01:44:11;;;;;;;1.83;1.20;;;17.40;99.90;;;;;;5055136;28;20215;-88
2021/10/03 01:46:36;;;;;;;1.43;1.00;;;17.40;99.90;;;;;;5056188;28;20535;-87
2021/10/03 01:49:03;;;;;;;1.87;1.30;;;17.40;99.90;;;;;;5073820;28;20178;-88
2021/10/03 01:51:41;;;;;;;1.30;1.20;;;17.50;99.90;;;;;;5055737;28;20168;-88
2021/10/03 01:54:08;;;;;;;1.73;1.30;;;17.40;99.90;;;;;;5074588;28;20207;-87
2021/10/03 01:56:35;;;;;;;2.53;1.30;;;17.40;99.90;;;;;;5062166;28;20250;-87
2021/10/03 01:59:04;;;;;;;3.53;1.33;;;17.40;99.90;;;;;;5057617;28;20265;-87
2021/10/03 02:01:33;;;;;;;1.57;1.30;;;17.30;99.90;;;;;;5073402;28;20181;-87
2021/10/03 02:03:59;;;;;;;2.63;1.50;;;17.40;99.90;;;;;;5055071;28;20253;-88
2021/10/03 02:06:25;;;;;;;1.93;1.43;;;17.40;99.90;;;;;;5073919;28;20180;-88
2021/10/03 02:08:57;;;;;;;2.43;1.60;;;17.40;99.90;;;;;;5055846;28;20672;-87
2021/10/03 02:11:25;;;;;;;2.83;1.40;;;17.40;99.90;;;;;;5055992;28;20179;-86
2021/10/03 02:13:57;;;;;;;3.70;1.83;;;17.40;99.90;;;;;;5055955;28;20175;-87
2021/10/03 02:16:22;;;;;;;2.60;1.90;;;17.40;99.90;;;;;;5055830;28;20654;-87
2021/10/03 02:18:48;;;;;;;4.10;1.97;;;17.50;99.90;;;;;;5055851;28;20176;-87
2021/10/03 02:21:17;;;;;;;3.60;2.30;;;17.50;99.90;;;;;;5094118;28;20202;-87
2021/10/03 02:23:45;;;;;;;2.87;2.03;;;17.60;99.90;;;;;;5087993;28;20233;-86
2021/10/03 02:26:16;;;;;;;2.87;1.80;;;17.60;99.90;;;;;;5074823;28;20164;-87
2021/10/03 02:28:49;;;;;;;2.37;1.10;;;17.70;99.90;;;;;;5055281;28;20263;-87
2021/10/03 02:31:17;;;;;;;2.33;1.07;;;17.60;99.90;;;;;;5073011;28;20177;-87
2021/10/03 02:33:45;;;;;;;2.13;0.90;;;17.20;99.90;;;;;;5055165;28;20644;-87
2021/10/03 02:36:33;;;;;;;1.83;0.50;;;17.00;99.90;;;;;;5073489;28;20165;-87
2021/10/03 02:39:02;;;;;;;3.03;0.60;;;16.70;99.90;;;;;;5055484;28;20192;-87
2021/10/03 02:41:29;;;;;;;1.47;0.57;;;16.50;99.90;;;;;;5063043;28;20176;-85
2021/10/03 02:44:11;;;;;;;2.97;0.80;;;16.40;99.90;;;;;;5093870;28;20275;-86
2021/10/03 02:47:50;;;;;;;1.60;0.63;;;16.40;99.90;;;;;;5077127;28;20183;-87
2021/10/03 02:50:38;;;;;;;1.47;0.50;;;16.40;99.90;;;;;;5055769;28;20229;-87
2021/10/03 03:48:35;;;;;;;0.70;0.50;;;16.00;99.90;;;;;;4917564;29;20212;-87
2021/10/03 03:59:11;;;;;;;;;;;;;;;;;;;;;
2021/10/03 04:02:42;;;;;;;;;;;;;;;;;;;;;
2021/10/03 04:08:39;;;;;;;0.43;0.43;;;15.20;99.90;;;;;;4923881;28;20607;-86
2021/10/03 04:15:57;;;;;;;1.47;0.70;;;15.30;99.90;;;;;;4993213;28;20181;-87
2021/10/03 04:35:49;;;;;;;1.20;0.80;;;15.70;99.90;;;;;;4879814;29;20269;-87
2021/10/03 04:55:21;;;;;;;1.50;0.60;;;15.20;99.90;;;;;;4822913;29;20299;-86
2021/10/03 04:57:53;;;;;;;1.20;0.63;;;15.00;99.90;;;;;;4808469;29;20206;-86
2021/10/03 05:00:19;;;;;;;1.90;0.80;;;14.90;99.90;;;;;;4969685;28;20290;-86
2021/10/03 05:03:03;;;;;;;;;;;;;;;;;;;;;
2021/10/03 05:06:01;;;;;;;1.40;0.87;;;15.10;99.90;;;;;;5054743;28;20189;-86
2021/10/03 05:09:39;;;;;;;1.57;0.83;;;15.10;99.90;;;;;;5035844;28;20575;-86
2021/10/03 05:15:54;;;;;;;1.70;0.70;;;15.20;99.90;;;;;;4914061;29;20246;-86
2021/10/03 05:18:29;;;;;;;1.27;0.60;;;15.30;99.90;;;;;;4915650;28;20207;-86
2021/10/03 05:20:57;;;;;;;1.37;0.90;;;15.50;99.90;;;;;;4986394;28;20182;-85
2021/10/03 05:23:24;;;;;;;1.47;0.80;;;15.30;99.90;;;;;;5038193;28;20219;-85
2021/10/03 05:26:16;;;;;;;1.93;0.80;;;15.20;99.90;;;;;;5050199;28;20249;-85
2021/10/03 05:28:53;;;;;;;1.53;1.00;;;15.00;99.90;;;;;;5074939;28;20179;-84
2021/10/03 05:31:23;;;;;;;1.53;1.00;;;15.10;99.90;;;;;;5075627;28;20176;-84
2021/10/03 05:34:04;;;;;;;2.07;1.37;;;15.00;99.90;;;;;;5075317;28;20202;-85
2021/10/03 05:36:51;;;;;;;2.40;1.00;;;15.10;99.90;;;;;;5059466;28;20192;-85
2021/10/03 05:39:21;;;;;;;1.53;1.10;;;15.30;99.90;;;;;;5063349;28;20184;-86
2021/10/03 05:41:49;;;;;;;3.10;1.50;;;15.40;99.90;;;;;;5057558;28;20161;-86
2021/10/03 05:44:53;;;;;;;1.80;1.50;;;15.20;99.90;;;;;;5066630;28;20195;-84
2021/10/03 05:47:25;;;;;;;3.00;1.60;;;15.00;99.90;;;;;;5072432;28;20172;-85
2021/10/03 05:50:15;;;;;;;1.40;1.07;;;15.00;99.90;;;;;;5037596;28;20224;-85
2021/10/03 05:52:48;;;;;;;1.50;1.10;;;15.10;99.90;;;;;;5036194;28;20272;-86
2021/10/03 05:55:18;;;;;;;1.77;1.20;;;15.30;99.90;;;;;;5036557;28;20181;-86
2021/10/03 05:57:49;;;;;;;2.90;1.30;;;15.30;99.90;;;;;;5038237;28;20192;-86
2021/10/03 06:00:19;;;;;;;1.20;0.60;;;15.10;99.90;;;;;;5049110;28;20206;-87
2021/10/03 06:03:09;;;;;;;;;;;;;;;;;;;;;
2021/10/03 06:06:18;;;;;;;1.00;0.50;;;14.20;99.90;;;;;;5060624;28;20735;-84
2021/10/03 06:09:15;;;;;;;1.03;0.70;;;14.00;99.90;;;;;;5047765;28;20186;-84
2021/10/03 06:11:44;;;;;;;1.60;0.60;;;13.80;99.90;;;;;;5046324;28;20185;-86
2021/10/03 06:14:10;;;;;;;1.40;0.70;;;13.70;99.90;;;;;;5036175;28;20207;-87
2021/10/03 06:16:42;;;;;;;3.33;1.10;;;13.50;99.90;;;;;;5037832;28;20177;-86
2021/10/03 06:19:21;;;;;;;1.30;0.73;;;13.50;99.90;;;;;;5036226;28;20307;-86
2021/10/03 06:21:52;;;;;;;1.97;0.87;;;13.60;99.90;;;;;;5036895;28;20738;-86
2021/10/03 06:24:18;;;;;;;2.87;1.00;;;13.60;99.90;;;;;;5039230;28;20224;-86
2021/10/03 06:26:47;;;;;;;1.10;0.80;;;13.70;99.90;;;;;;5038974;28;20176;-85
2021/10/03 06:29:17;;;;;;;2.20;0.80;;;13.40;99.90;;;;;;5039032;28;20185;-85
2021/10/03 06:31:43;;;;;;;2.30;1.10;;;13.40;99.90;;;;;;5056786;28;20179;-86
2021/10/03 06:37:34;;;;;;;2.70;1.30;;;13.70;99.90;;;;;;5028007;28;20246;-88
2021/10/03 06:43:35;;;;;;;1.43;1.13;;;13.70;99.90;;;;;;4936254;29;20216;-86
2021/10/03 06:46:13;;;;;;;2.27;1.20;;;13.50;99.90;;;;;;4920594;29;20767;-86
2021/10/03 06:48:41;;;;;;;2.40;1.30;;;13.50;99.90;;;;;;5006877;28;20184;-87
2021/10/03 06:51:07;;;;;;;2.97;1.47;;;13.60;99.90;;;;;;5040718;28;20193;-86
2021/10/03 06:53:34;;;;;;;3.43;1.30;;;13.80;99.90;;;;;;5060025;28;20192;-86
2021/10/03 06:56:01;;;;;;;1.80;1.17;;;13.90;99.90;;;;;;5040068;28;20658;-86
2021/10/03 06:58:28;;;;;;;3.43;1.10;;;13.90;99.90;;;;;;5059406;28;20675;-85
2021/10/03 07:01:01;;;;;;;1.30;1.00;;;14.00;99.90;;;;;;5059107;28;20174;-85
2021/10/03 07:03:30;;;;;;;1.50;0.93;;;13.90;99.90;;;;;;5039346;28;20232;-86
2021/10/03 07:06:00;;;;;;;2.57;1.13;;;14.10;99.90;;;;;;5039236;28;20188;-84
2021/10/03 07:08:25;;;;;;;2.53;1.07;;;14.10;99.90;;;;;;5038829;28;20626;-86
2021/10/03 07:10:53;;;;;;;1.67;0.90;;;14.10;99.90;;;;;;5038777;28;20252;-86
2021/10/03 07:13:40;;;;;;;1.00;0.70;;;13.90;99.90;;;;;;5056872;28;20180;-86
2021/10/03 07:16:33;;;;;;;2.23;1.00;;;13.80;99.90;;;;;;5039203;28;20271;-85
2021/10/03 07:19:00;;;;;;;1.50;0.80;;;14.00;99.90;;;;;;5037280;28;20196;-86
2021/10/03 07:21:29;;;;;;;1.77;0.67;;;13.80;99.90;;;;;;5053103;28;20204;-85
2021/10/03 07:23:54;;;;;;;1.57;0.80;;;14.10;99.90;;;;;;5072768;28;20212;-86
2021/10/03 07:26:43;;;;;;;1.27;0.80;;;14.20;99.90;;;;;;5046492;28;20181;-85
2021/10/03 07:29:15;;;;;;;1.73;1.00;;;14.20;99.90;;;;;;5079052;28;20657;-85
2021/10/03 07:31:46;;;;;;;1.50;0.90;;;14.20;99.90;;;;;;5059565;28;20189;-86
2021/10/03 07:35:13;;;;;;;;;;;;;;;;;;;;;
2021/10/03 07:37:51;;;;;;;1.57;0.70;;;14.30;99.90;;;;;;5077796;28;20174;-85
2021/10/03 07:48:17;;;;;;;1.03;0.70;;;14.00;99.90;;;;;;4886756;29;20222;-84
2021/10/03 07:50:49;;;;;;;1.23;0.70;;;14.00;99.90;;;;;;4872159;29;20251;-85
2021/10/03 07:53:14;;;;;;;2.17;0.80;;;14.10;99.90;;;;;;4915486;29;20212;-85
2021/10/03 07:56:17;;;;;;;1.70;0.80;;;14.10;99.90;;;;;;4941347;28;20739;-86
2021/10/03 07:58:57;;;;;;;1.27;0.80;;;14.20;99.90;;;;;;5040635;28;20189;-86
2021/10/03 08:01:32;;;;;;;2.03;0.80;;;14.10;99.90;;;;;;5059404;28;20182;-86
2021/10/03 08:04:32;;;;;;;3.30;1.20;;;14.10;99.90;;;;;;5065864;28;20184;-87
2021/10/03 08:07:07;;;;;;;1.23;0.80;;;14.10;99.90;;;;;;5068159;28;20296;-86
2021/10/03 08:09:43;;;;;;;1.00;0.83;;;14.10;99.90;;;;;;5058765;28;20189;-86
2021/10/03 08:12:34;;;;;;;2.00;1.10;;;14.20;99.90;;;;;;5039846;28;20198;-87
2021/10/03 08:18:27;;;;;;;1.53;1.07;;;14.30;99.90;;;;;;4954507;29;20199;-87
2021/10/03 08:21:11;;;;;;;1.43;1.00;;;14.40;99.90;;;;;;4945478;28;20184;-87
2021/10/03 08:24:05;;;;;;;1.83;1.10;;;14.30;99.90;;;;;;4974131;28;20238;-86
2021/10/03 08:33:51;;;;;;;1.30;1.10;;;14.40;99.90;;;;;;4921471;29;20694;-87
2021/10/03 08:36:26;;;;;;;4.23;2.40;;;14.30;99.90;;;;;;4936323;29;20214;-88
2021/10/03 08:39:39;;;;;;;1.97;1.07;;;14.40;99.90;;;;;;4935318;29;20287;-88
2021/10/03 08:45:54;;;;;;;1.90;1.10;;;14.60;99.90;;;;;;5029203;28;20196;-86
2021/10/03 08:48:29;;;;;;;1.67;0.93;;;14.50;99.90;;;;;;5011622;28;20179;-87
2021/10/03 08:50:59;;;;;;;1.50;1.13;;;14.50;99.90;;;;;;5054040;28;20181;-84
2021/10/03 08:53:25;;;;;;;1.50;0.90;;;14.40;99.90;;;;;;5055948;28;20203;-84
2021/10/03 08:55:56;;;;;;;2.20;1.03;;;14.40;99.90;;;;;;5043680;28;20204;-83
2021/10/03 08:58:22;;;;;;;1.97;1.40;;;14.60;99.90;;;;;;5036201;28;20277;-85
2021/10/03 09:01:11;;;;;;;2.67;1.37;;;14.60;99.90;;;;;;5037818;28;20272;-85
2021/10/03 09:03:39;;;;;;;2.33;1.20;;;14.60;99.90;;;;;;5037476;28;20214;-84
2021/10/03 09:06:26;;;;;;;1.63;1.40;;;14.70;99.90;;;;;;5037978;28;20181;-83
2021/10/03 09:08:54;;;;;;;2.47;1.40;;;14.70;99.90;;;;;;5054351;28;20190;-83
2021/10/03 09:11:21;;;;;;;1.60;1.10;;;14.70;99.90;;;;;;5047727;28;20181;-84
2021/10/03 09:13:50;;;;;;;2.30;1.17;;;14.80;99.90;;;;;;5046355;28;20387;-85
2021/10/03 09:16:33;;;;;;;2.83;1.27;;;14.80;99.90;;;;;;5032385;28;20177;-84
2021/10/03 09:19:04;;;;;;;3.20;1.60;;;14.80;99.90;;;;;;5013445;28;20253;-84
2021/10/03 09:21:30;;;;;;;2.60;1.70;;;14.80;99.90;;;;;;5063445;28;20211;-83
2021/10/03 09:24:16;;;;;;;2.13;1.60;;;14.90;99.90;;;;;;5054600;28;20228;-84
2021/10/03 09:27:03;;;;;;;3.00;2.10;;;15.10;99.90;;;;;;5045989;28;20179;-84
2021/10/03 09:29:36;;;;;;;2.30;1.70;;;15.10;99.90;;;;;;5052829;28;20250;-86
2021/10/03 09:32:16;;;;;;;2.83;1.77;;;15.10;99.90;;;;;;5057083;28;20186;-85
2021/10/03 09:34:49;;;;;;;3.67;2.10;;;15.30;99.90;;;;;;5056635;28;20251;-84
2021/10/03 09:37:23;;;;;;;3.73;2.40;;;15.40;99.90;;;;;;5041428;28;20249;-84
2021/10/03 09:39:51;;;;;;;3.30;2.20;;;15.40;99.90;;;;;;5040166;28;20183;-83
2021/10/03 09:42:18;;;;;;;4.73;2.10;;;15.50;99.90;;;;;;5054411;28;20169;-82
2021/10/03 09:45:05;;;;;;;3.63;2.50;;;15.30;99.90;;;;;;5050333;28;20222;-83
2021/10/03 09:47:30;;;;;;;5.80;4.40;;;15.00;99.90;;;;;;5032147;28;20585;-84
2021/10/03 09:49:58;;;;;;;4.00;2.33;;;15.00;99.90;;;;;;5050324;28;20195;-83
2021/10/03 09:52:24;;;;;;;3.73;2.80;;;15.10;99.90;;;;;;5051411;28;20188;-83
2021/10/03 09:55:30;;;;;;;;;;;;;;;;;;;;;
2021/10/03 09:57:57;;;;;;;2.93;2.40;;;15.20;99.90;;;;;;5051430;28;20175;-83
2021/10/03 10:00:26;;;;;;;3.57;2.17;;;15.20;99.90;;;;;;5052098;28;20184;-83
2021/10/03 10:02:58;;;;;;;4.33;3.00;;;15.20;99.90;;;;;;5052286;28;20173;-83
2021/10/03 10:05:26;;;;;;;4.13;2.57;;;15.20;99.90;;;;;;5051800;28;20188;-83
2021/10/03 10:07:54;;;;;;;2.47;1.70;;;15.10;99.90;;;;;;5026999;28;20250;-85
2021/10/03 10:10:24;;;;;;;3.70;2.07;;;15.20;99.90;;;;;;5038732;28;20196;-85
2021/10/03 10:13:02;;;;;;;3.47;2.07;;;15.30;99.90;;;;;;5053111;28;20196;-85
2021/10/03 10:15:34;;;;;;;3.20;1.93;;;15.40;99.90;;;;;;5052614;28;20192;-83
2021/10/03 10:18:22;;;;;;;4.80;2.10;;;15.50;99.90;;;;;;5033098;28;20180;-83
2021/10/03 10:21:08;;;;;;;;;;;;;;;;;;;;;
2021/10/03 10:23:48;;;;;;;3.70;2.30;;;15.60;99.90;;;;;;5057199;28;20204;-83
2021/10/03 10:26:38;;;;;;;3.90;2.80;;;15.70;99.90;;;;;;5060654;28;20204;-82
2021/10/03 10:29:44;;;;;;;3.93;2.57;;;15.70;99.90;;;;;;5056010;28;20185;-84
2021/10/03 10:32:16;;;;;;;4.67;3.50;;;15.80;99.90;;;;;;5056154;28;20268;-83
2021/10/03 10:35:10;;;;;;;5.23;4.20;;;15.80;99.90;;;;;;5024319;28;20873;-84
2021/10/03 10:37:54;;;;;;;5.07;4.13;;;15.80;99.90;;;;;;5043644;28;20196;-83
2021/10/03 10:40:22;;;;;;;6.27;5.60;;;15.90;99.90;;;;;;5062294;28;20183;-83
2021/10/03 10:43:21;;;;;;;6.77;4.73;;;15.80;99.90;;;;;;5043666;28;20275;-83
2021/10/03 10:45:49;;;;;;;5.00;4.37;;;15.60;99.90;;;;;;5027506;28;20202;-83
2021/10/03 10:48:24;;;;;;;4.87;4.20;;;15.60;99.90;;;;;;5059916;28;20221;-83
2021/10/03 10:50:53;;;;;;;5.00;4.27;;;15.40;99.90;;;;;;5045728;28;20189;-83
2021/10/03 10:53:26;;;;;;;6.53;5.00;;;15.40;99.90;;;;;;5043606;28;20262;-84
2021/10/03 10:56:16;;;;;;;5.73;4.60;;;15.30;99.90;;;;;;5043961;28;20196;-83
2021/10/03 10:58:53;;;;;;;5.40;4.37;;;15.40;99.90;;;;;;5061623;28;20189;-83
2021/10/03 11:01:45;;;;;;;5.67;4.47;;;15.40;99.90;;;;;;5041936;28;20178;-84
2021/10/03 11:04:24;;;;;;;6.73;5.50;;;15.30;99.90;;;;;;5063827;28;20272;-84
2021/10/03 11:06:49;;;;;;;7.00;4.83;;;15.30;99.90;;;;;;5044157;28;20189;-83
2021/10/03 11:09:17;;;;;;;6.13;4.47;;;15.30;99.90;;;;;;5066584;28;20229;-84
2021/10/03 11:11:58;;;;;;;14.50;11.50;;;15.30;99.90;;;;;;5050186;28;20218;-84
2021/10/03 11:14:27;;;;;;;8.67;6.30;;;15.20;99.90;;;;;;5073241;28;20176;-83
2021/10/03 11:17:06;;;;;;;7.63;6.83;;;15.00;99.90;;;;;;5052396;28;20191;-84
2021/10/03 11:19:48;;;;;;;7.93;6.00;;;14.80;99.90;;;;;;5065636;28;20196;-83
2021/10/03 11:22:21;;;;;;;9.43;7.40;;;14.50;99.90;;;;;;5035044;28;20216;-83
2021/10/03 11:24:52;;;;;;;6.90;5.80;;;14.40;99.90;;;;;;5041727;28;20220;-84
2021/10/03 11:27:37;;;;;;;7.77;6.37;;;14.20;99.90;;;;;;5048534;28;20204;-85
2021/10/03 11:30:06;;;;;;;6.67;5.87;;;14.10;99.90;;;;;;5051177;28;20203;-86
2021/10/03 11:32:38;;;;;;;8.20;6.20;;;14.00;99.90;;;;;;5048838;28;20258;-85
2021/10/03 11:35:05;;;;;;;7.10;6.03;;;13.90;99.90;;;;;;5039956;28;20224;-84
2021/10/03 11:38:03;;;;;;;5.17;4.40;;;13.90;99.90;;;;;;5057535;28;20177;-84
2021/10/03 11:40:38;;;;;;;5.03;3.70;;;13.70;99.90;;;;;;5027994;28;20189;-85
2021/10/03 11:43:18;;;;;;;4.73;3.57;;;13.60;99.90;;;;;;5038345;28;20183;-83
2021/10/03 11:45:49;;;;;;;5.67;4.10;;;13.40;99.90;;;;;;5055742;28;20278;-84
2021/10/03 11:48:27;;;;;;;6.33;5.10;;;13.30;99.90;;;;;;5037473;28;20239;-84
2021/10/03 11:51:06;;;;;;;7.70;5.80;;;13.30;99.90;;;;;;5037230;28;20185;-83
2021/10/03 11:53:58;;;;;;;7.87;6.37;;;13.30;99.90;;;;;;5037114;28;20208;-83
2021/10/03 11:56:37;;;;;;;8.37;6.30;;;13.20;99.90;;;;;;5037572;28;20200;-83
2021/10/03 11:59:28;;;;;;;5.60;4.50;;;13.30;99.90;;;;;;5036775;28;20274;-83
2021/10/03 12:02:29;;;;;;;;;;;;;;;;;;;;;
2021/10/03 12:05:20;;;;;;;;;;;;;;;;;;;;;
2021/10/03 12:08:59;;;;;;;;;;;;;;;;;;;;;
2021/10/03 12:11:55;;;;;;;2.17;1.13;;;13.10;99.90;;;;;;4960945;28;20243;-83
2021/10/03 12:14:25;;;;;;;2.43;1.20;;;13.10;99.90;;;;;;4958420;28;20176;-83
2021/10/03 12:17:30;;;;;;;3.07;1.07;;;13.10;99.90;;;;;;4969776;29;20176;-84
2021/10/03 12:19:57;;;;;;;1.33;1.00;;;13.20;99.90;;;;;;4995231;28;20191;-85
2021/10/03 12:22:40;;;;;;;1.80;1.07;;;13.10;99.90;;;;;;5062838;28;20205;-85
2021/10/03 12:25:18;;;;;;;3.40;1.33;;;13.10;99.90;;;;;;5029786;28;20221;-86
2021/10/03 12:27:59;;;;;;;3.00;1.47;;;13.10;99.90;;;;;;5058180;28;20185;-85
2021/10/03 12:30:25;;;;;;;2.33;1.27;;;13.10;99.90;;;;;;5038395;28;20181;-85
2021/10/03 12:33:02;;;;;;;2.53;1.50;;;13.00;99.90;;;;;;5037570;28;20263;-84
2021/10/03 12:35:28;;;;;;;3.20;1.50;;;13.10;99.90;;;;;;5049432;28;20318;-85
2021/10/03 12:37:54;;;;;;;2.17;1.20;;;13.20;99.90;;;;;;5038278;28;20221;-85
2021/10/03 12:40:23;;;;;;;2.40;1.53;;;13.20;99.90;;;;;;5056718;28;20172;-82
2021/10/03 12:42:48;;;;;;;2.57;1.57;;;13.10;99.90;;;;;;5036659;28;20208;-84
2021/10/03 12:45:17;;;;;;;2.87;1.60;;;13.10;99.90;;;;;;5038062;28;20651;-86
2021/10/03 12:47:46;;;;;;;2.63;1.30;;;13.30;99.90;;;;;;5046227;28;20211;-85
2021/10/03 12:50:26;;;;;;;2.53;1.40;;;13.20;99.90;;;;;;5037446;28;20189;-87
2021/10/03 12:53:03;;;;;;;2.33;1.70;;;13.20;99.90;;;;;;5061054;28;20189;-85
2021/10/03 12:55:30;;;;;;;3.13;1.80;;;13.30;99.90;;;;;;5064459;28;20185;-86
2021/10/03 12:58:01;;;;;;;2.20;1.50;;;13.30;99.90;;;;;;5036580;28;20190;-86
2021/10/03 13:00:31;;;;;;;3.47;2.07;;;13.40;99.90;;;;;;5071444;28;20180;-83
2021/10/03 13:02:59;;;;;;;3.23;2.20;;;13.60;99.90;;;;;;5040828;28;20188;-84
2021/10/03 13:05:25;;;;;;;3.00;1.90;;;13.70;99.90;;;;;;5039791;28;20192;-83
2021/10/03 13:07:52;;;;;;;4.37;2.83;;;13.60;99.90;;;;;;5035416;28;20543;-84
2021/10/03 13:10:18;;;;;;;2.63;1.63;;;13.40;99.90;;;;;;5035966;28;20589;-84
2021/10/03 13:12:44;;;;;;;3.37;1.73;;;13.50;99.90;;;;;;5044352;28;20189;-85
2021/10/03 13:15:10;;;;;;;2.43;1.37;;;13.50;99.90;;;;;;5050801;28;20631;-83
2021/10/03 13:17:37;;;;;;;4.67;2.23;;;13.60;99.90;;;;;;5037593;28;20219;-83
2021/10/03 13:20:04;;;;;;;3.50;1.60;;;13.60;99.90;;;;;;5037284;28;20181;-85
2021/10/03 13:22:31;;;;;;;4.27;2.10;;;13.70;99.90;;;;;;5039701;28;20240;-83
2021/10/03 13:24:57;;;;;;;3.60;1.80;;;13.80;99.90;;;;;;5036860;28;20225;-84
2021/10/03 13:27:23;;;;;;;3.63;1.23;;;13.80;99.90;;;;;;5057966;28;20178;-86
2021/10/03 13:29:51;;;;;;;2.73;1.10;;;13.80;99.90;;;;;;5040337;28;20641;-85
2021/10/03 13:32:20;;;;;;;4.33;1.33;;;13.70;99.90;;;;;;5041446;28;20193;-85
2021/10/03 13:34:59;;;;;;;4.83;2.50;;;13.80;99.90;;;;;;5027203;28;20231;-85
2021/10/03 13:37:25;;;;;;;2.50;2.00;;;13.80;99.90;;;;;;5058211;28;20173;-87
2021/10/03 13:39:50;;;;;;;3.27;2.27;;;13.90;99.90;;;;;;5041872;28;20558;-86
2021/10/03 13:42:16;;;;;;;4.13;2.13;;;13.90;99.90;;;;;;5062737;28;20176;-85
2021/10/03 13:44:42;;;;;;;2.43;1.50;;;13.90;99.90;;;;;;5050514;28;20228;-84
2021/10/03 13:47:11;;;;;;;2.83;1.33;;;14.00;99.90;;;;;;5051118;28;20180;-85
2021/10/03 13:49:40;;;;;;;3.80;1.57;;;14.10;99.90;;;;;;5052074;28;20214;-83
2021/10/03 13:52:11;;;;;;;4.97;1.90;;;13.90;99.90;;;;;;5070463;28;20188;-84
2021/10/03 13:54:44;;;;;;;5.00;1.80;;;13.90;99.90;;;;;;5050445;28;20699;-85
2021/10/03 13:57:09;;;;;;;2.73;1.70;;;13.90;99.90;;;;;;5064118;28;20223;-86
2021/10/03 13:59:46;;;;;;;2.87;1.83;;;14.10;99.90;;;;;;5060523;28;20228;-85
2021/10/03 14:02:16;;;;;;;4.37;2.10;;;14.10;99.90;;;;;;5059933;28;20188;-84
2021/10/03 14:08:01;;;;;;;4.97;2.37;;;14.20;99.90;;;;;;5036366;28;20667;-86
2021/10/03 14:10:26;;;;;;;3.93;2.47;;;14.30;99.90;;;;;;5036303;28;20185;-85
2021/10/03 14:13:02;;;;;;;4.03;2.30;;;14.10;99.90;;;;;;5036019;28;20326;-87
2021/10/03 14:15:30;;;;;;;3.37;2.33;;;14.30;99.90;;;;;;5051810;28;20200;-85
2021/10/03 14:18:05;;;;;;;3.00;2.23;;;14.40;99.90;;;;;;5050650;28;20212;-85
2021/10/03 14:21:05;;;;;;;5.03;2.40;;;14.40;99.90;;;;;;5037852;28;20571;-86
2021/10/03 14:23:31;;;;;;;5.07;2.30;;;14.30;99.90;;;;;;5050802;28;20251;-85
2021/10/03 14:26:12;;;;;;;4.63;2.40;;;14.20;99.90;;;;;;5037304;28;20173;-84
2021/10/03 14:28:52;;;;;;;4.83;2.40;;;14.20;99.90;;;;;;5037706;28;20558;-85
2021/10/03 14:31:18;;;;;;;5.63;2.33;;;14.20;99.90;;;;;;5030182;28;20191;-84
2021/10/03 14:37:14;;;;;;;3.47;2.50;;;14.20;99.90;;;;;;5036855;28;20184;-86
2021/10/03 14:39:49;;;;;;;3.57;2.30;;;14.30;99.90;;;;;;5052836;28;20173;-85
2021/10/03 14:42:21;;;;;;;4.70;2.30;;;14.30;99.90;;;;;;5053122;28;20192;-84
2021/10/03 14:44:54;;;;;;;3.53;2.40;;;14.20;99.90;;;;;;5034775;28;20672;-85
2021/10/03 14:47:33;;;;;;;3.90;2.83;;;14.20;99.90;;;;;;5055372;28;20553;-85
2021/10/03 14:50:01;;;;;;;4.37;2.47;;;14.20;99.90;;;;;;5056170;28;20173;-83
2021/10/03 14:52:30;;;;;;;5.67;2.63;;;14.10;99.90;;;;;;5035050;28;20173;-85
2021/10/03 14:55:07;;;;;;;3.63;2.60;;;14.10;99.90;;;;;;5051363;28;20193;-86
2021/10/03 14:57:34;;;;;;;3.37;2.50;;;14.10;99.90;;;;;;5035975;28;20211;-84
2021/10/03 15:00:00;;;;;;;3.73;2.73;;;14.10;99.90;;;;;;5035313;28;20177;-84
2021/10/03 15:02:26;;;;;;;4.17;2.40;;;14.10;99.90;;;;;;5052063;28;20165;-86
2021/10/03 15:05:05;;;;;;;4.93;2.93;;;14.20;99.90;;;;;;5053399;28;20725;-85
2021/10/03 15:07:41;;;;;;;4.90;2.90;;;14.30;99.90;;;;;;5051344;28;20170;-85
2021/10/03 15:10:13;;;;;;;4.40;2.67;;;14.50;99.90;;;;;;5020689;28;20228;-85
2021/10/03 15:12:52;;;;;;;4.00;2.73;;;14.60;99.90;;;;;;5047717;28;20174;-86
2021/10/03 15:15:24;;;;;;;3.73;2.57;;;14.90;99.90;;;;;;5037982;28;20180;-85
2021/10/03 15:17:52;;;;;;;3.87;2.40;;;15.10;99.90;;;;;;5037491;28;20256;-84
2021/10/03 15:20:22;;;;;;;3.70;2.03;;;15.60;99.90;;;;;;5037139;28;20187;-84
2021/10/03 15:22:54;;;;;;;4.27;2.30;;;15.80;97.10;;;;;;5037612;28;20212;-84
2021/10/03 15:25:29;;;;;;;3.90;2.37;;;15.80;97.00;;;;;;5037785;28;20270;-85
2021/10/03 15:27:57;;;;;;;3.80;2.33;;;15.90;97.10;;;;;;5036796;28;20279;-85
2021/10/03 15:31:03;;;;;;;4.83;2.60;;;15.90;95.90;;;;;;5029635;28;20196;-85
2021/10/03 15:33:29;;;;;;;4.03;2.10;;;15.70;96.70;;;;;;5020523;28;20197;-84
2021/10/03 15:35:55;;;;;;;3.53;2.10;;;15.40;97.10;;;;;;5022983;28;20180;-84
2021/10/03 15:41:17;;;;;;;5.20;2.87;;;15.00;98.70;;;;;;5037933;28;20190;-84
2021/10/03 15:43:48;;;;;;;5.17;3.00;;;14.90;99.60;;;;;;5035222;28;20745;-84
2021/10/03 15:46:14;;;;;;;5.37;3.43;;;14.80;99.90;;;;;;5034452;28;20546;-82
2021/10/03 15:48:42;;;;;;;5.67;3.50;;;14.90;99.90;;;;;;5036528;28;20196;-81
2021/10/03 15:51:07;;;;;;;4.93;3.00;;;15.10;99.90;;;;;;5055502;28;20252;-82
2021/10/03 15:53:33;;;;;;;4.70;3.07;;;14.90;99.90;;;;;;5032216;28;20185;-82
2021/10/03 15:55:59;;;;;;;5.20;3.00;;;14.60;99.90;;;;;;5038151;28;20552;-82
2021/10/03 15:58:25;;;;;;;4.00;2.47;;;14.50;99.90;;;;;;5030562;28;20193;-81
2021/10/03 16:00:52;;;;;;;3.40;2.30;;;14.40;99.90;;;;;;5035870;28;20185;-80
2021/10/03 16:03:18;;;;;;;4.43;2.80;;;14.40;99.90;;;;;;5026063;28;20598;-80
2021/10/03 16:05:43;;;;;;;4.47;3.13;;;14.30;99.90;;;;;;5036790;28;20293;-82
2021/10/03 16:08:09;;;;;;;3.87;2.50;;;14.40;99.90;;;;;;5035938;28;20269;-84